Time;durP1;ratioP1;P1;durP2;ratioP2;P2;SDS_P1;SDS_P2;PMS_P1;PMS_P2;Temp;Humidity;BMP_temperature;BMP_pressure;BME280_temperature;BME280_humidity;BME280_pressure;Samples;Min_cycle;Max_cycle;Signal;HPM_P1;HPM_P2
2022/06/09 00:00:37;;;;;;;21.90;19.80;;;;;;;16.36;93.76;100592.34;4992407;28;20426;-45
2022/06/09 00:03:10;;;;;;;22.23;20.23;;;;;;;16.34;93.78;100594.44;4992733;28;20904;-46
2022/06/09 00:05:38;;;;;;;21.30;19.40;;;;;;;16.34;93.58;100588.25;4992490;28;20456;-47
2022/06/09 00:08:08;;;;;;;21.43;19.47;;;;;;;16.32;93.58;100596.56;4992026;28;20480;-47
2022/06/09 00:10:38;;;;;;;24.67;22.33;;;;;;;16.31;93.41;100591.41;4991991;28;20473;-46
2022/06/09 00:13:07;;;;;;;18.93;17.30;;;;;;;16.29;93.46;100588.97;4992671;28;20438;-46
2022/06/09 00:15:36;;;;;;;25.13;22.57;;;;;;;16.28;93.35;100583.81;4992404;28;20458;-47
2022/06/09 00:18:04;;;;;;;23.60;21.10;;;;;;;16.26;92.92;100592.13;4992006;28;20537;-47
2022/06/09 00:20:31;;;;;;;22.33;20.23;;;;;;;16.24;93.48;100588.03;4991943;28;20441;-47
2022/06/09 00:22:59;;;;;;;21.77;19.77;;;;;;;16.20;93.07;100590.38;4992649;28;20434;-44
2022/06/09 00:25:27;;;;;;;25.93;23.33;;;;;;;16.21;92.65;100591.22;4992539;28;20946;-48
2022/06/09 00:27:54;;;;;;;21.90;19.60;;;;;;;16.21;92.43;100592.03;4992478;28;20458;-49
2022/06/09 00:30:23;;;;;;;24.77;22.40;;;;;;;16.21;92.41;100589.34;4992428;28;20434;-45
2022/06/09 00:32:51;;;;;;;22.23;20.03;;;;;;;16.22;92.42;100592.84;4985267;28;20442;-47
2022/06/09 00:35:18;;;;;;;20.80;18.83;;;;;;;16.21;92.36;100594.72;4985650;28;20430;-48
2022/06/09 00:37:46;;;;;;;20.93;19.13;;;;;;;16.24;92.32;100590.75;4993257;28;20819;-45
2022/06/09 00:40:15;;;;;;;24.07;21.80;;;;;;;16.23;92.37;100589.09;4996742;28;20526;-46
2022/06/09 00:42:42;;;;;;;22.50;20.20;;;;;;;16.23;92.55;100587.22;4996999;28;20524;-47
2022/06/09 00:45:42;;;;;;;22.37;19.97;;;;;;;16.23;92.32;100587.22;4996669;28;20437;-47
2022/06/09 00:48:22;;;;;;;20.20;18.27;;;;;;;16.24;92.59;100585.34;4962732;28;20454;-47
2022/06/09 00:50:54;;;;;;;22.60;20.40;;;;;;;16.21;92.75;100583.13;4996176;28;20429;-46
2022/06/09 00:53:27;;;;;;;22.47;20.37;;;;;;;16.21;92.63;100588.53;4996100;28;20442;-46
2022/06/09 00:55:59;;;;;;;24.63;22.03;;;;;;;16.20;92.64;100584.19;4995953;28;20442;-46
2022/06/09 00:58:28;;;;;;;22.63;20.33;;;;;;;16.19;92.61;100579.88;4995455;28;20462;-46
2022/06/09 01:01:02;;;;;;;24.23;21.70;;;;;;;16.19;92.66;100579.88;4995527;28;20438;-48
2022/06/09 01:03:36;;;;;;;22.97;20.63;;;;;;;16.17;92.65;100579.28;4995745;28;20469;-45
2022/06/09 01:06:08;;;;;;;22.27;20.07;;;;;;;16.17;92.39;100584.66;4995776;28;20450;-47
2022/06/09 01:08:43;;;;;;;27.07;24.30;;;;;;;16.16;92.65;100586.53;4995276;28;20458;-45
2022/06/09 01:11:10;;;;;;;27.33;21.17;;;;;;;16.15;92.60;100584.09;4995195;28;20476;-46
2022/06/09 01:13:38;;;;;;;25.13;22.57;;;;;;;16.14;92.46;100590.50;4995790;28;20440;-46
2022/06/09 01:16:15;;;;;;;24.33;21.87;;;;;;;16.13;92.29;100578.94;4995407;28;20496;-47
2022/06/09 01:18:53;;;;;;;26.93;24.10;;;;;;;16.13;92.19;100578.13;4995075;28;20465;-46
2022/06/09 01:21:43;;;;;;;21.10;19.13;;;;;;;16.13;91.93;100583.50;4995305;28;20429;-45
2022/06/09 01:24:37;;;;;;;25.33;22.83;;;;;;;16.11;91.94;100581.03;4995656;28;20807;-48
2022/06/09 01:27:16;;;;;;;24.47;22.07;;;;;;;16.11;91.93;100580.22;4993242;28;20591;-48
2022/06/09 01:29:49;;;;;;;24.17;21.80;;;;;;;16.10;91.91;100584.78;4994996;28;20430;-49
2022/06/09 01:32:25;;;;;;;23.23;21.03;;;;;;;16.09;91.94;100596.63;4995071;28;20474;-47
2022/06/09 01:35:08;;;;;;;24.80;22.50;;;;;;;16.08;91.73;100592.28;4995314;28;20422;-45
2022/06/09 01:37:41;;;;;;;24.03;21.43;;;;;;;16.07;91.75;100597.91;4994663;28;20965;-48
2022/06/09 01:40:12;;;;;;;24.27;21.87;;;;;;;16.06;91.69;100602.47;4995001;28;20426;-48
2022/06/09 01:42:42;;;;;;;24.90;22.20;;;;;;;16.03;91.39;100595.69;4995024;28;20512;-48
2022/06/09 01:45:14;;;;;;;25.83;23.30;;;;;;;16.03;91.30;100590.31;4995448;28;20435;-46
2022/06/09 01:47:49;;;;;;;22.30;20.20;;;;;;;16.05;90.96;100593.56;4994328;28;20828;-48
2022/06/09 01:50:24;;;;;;;23.07;20.80;;;;;;;16.03;91.18;100590.31;4994272;28;20892;-46
2022/06/09 01:52:53;;;;;;;26.33;22.20;;;;;;;16.03;91.27;100592.19;4995059;28;20488;-45
2022/06/09 01:55:24;;;;;;;23.93;21.70;;;;;;;16.01;91.41;100597.78;4995299;28;20521;-44
2022/06/09 01:57:57;;;;;;;23.20;21.00;;;;;;;16.00;91.19;100590.78;4994842;28;20457;-47
2022/06/09 02:00:26;;;;;;;23.80;21.30;;;;;;;16.00;91.14;100595.34;4995059;28;20460;-44
2022/06/09 02:03:01;;;;;;;25.03;22.40;;;;;;;15.98;91.10;100597.41;4994953;28;20437;-49
2022/06/09 02:05:37;;;;;;;27.23;23.10;;;;;;;15.97;90.70;100583.19;4995189;28;20418;-44
2022/06/09 02:08:08;;;;;;;32.80;24.97;;;;;;;15.97;90.81;100582.34;4994799;28;20552;-45
2022/06/09 02:10:37;;;;;;;24.90;22.40;;;;;;;15.97;90.95;100591.25;4995282;28;20430;-45
2022/06/09 02:13:10;;;;;;;25.03;22.43;;;;;;;15.95;90.78;100590.66;4994771;28;20480;-46
2022/06/09 02:15:41;;;;;;;27.20;24.40;;;;;;;15.94;90.72;100591.72;4994630;28;20799;-47
2022/06/09 02:18:14;;;;;;;28.63;24.53;;;;;;;15.93;90.86;100591.94;4994436;28;20466;-45
2022/06/09 02:20:44;;;;;;;27.90;24.67;;;;;;;15.92;90.61;100599.19;4994527;28;20938;-46
2022/06/09 02:23:14;;;;;;;26.77;22.53;;;;;;;15.89;90.85;100588.91;4994801;28;20456;-47
2022/06/09 02:25:42;;;;;;;29.83;25.80;;;;;;;15.88;90.60;100584.59;4994526;28;20501;-46
2022/06/09 02:28:10;;;;;;;26.33;23.57;;;;;;;15.86;90.50;100583.19;4994106;28;20472;-45
2022/06/09 02:30:38;;;;;;;22.23;19.87;;;;;;;15.86;90.25;100592.06;4994598;28;20434;-44
2022/06/09 02:33:23;;;;;;;30.77;27.23;;;;;;;15.86;89.94;100583.19;4976459;28;20553;-46
2022/06/09 02:35:52;;;;;;;32.00;28.07;;;;;;;15.85;90.09;100586.94;4991542;28;20450;-46
2022/06/09 02:38:21;;;;;;;30.60;27.40;;;;;;;15.85;89.65;100586.94;4993951;28;21063;-46
2022/06/09 02:40:50;;;;;;;33.33;29.97;;;;;;;15.84;89.58;100586.09;4994032;28;20433;-46
2022/06/09 02:43:18;;;;;;;37.60;30.50;;;;;;;15.85;89.26;100598.50;4994451;28;20440;-48
2022/06/09 02:45:46;;;;;;;27.30;24.50;;;;;;;15.87;88.73;100601.78;4994028;28;20987;-45
2022/06/09 02:48:14;;;;;;;28.63;25.70;;;;;;;15.88;88.72;100598.03;4993800;28;20548;-44
2022/06/09 02:50:43;;;;;;;34.37;28.47;;;;;;;15.89;88.72;100598.81;4994028;28;20433;-46
2022/06/09 02:53:11;;;;;;;33.23;29.77;;;;;;;15.89;88.91;100596.97;4993933;28;20471;-44
2022/06/09 02:55:39;;;;;;;31.80;28.70;;;;;;;15.91;88.81;100602.13;4993906;28;20434;-46
2022/06/09 02:58:07;;;;;;;38.93;32.13;;;;;;;15.91;88.97;100596.75;4993656;28;21009;-45
2022/06/09 03:00:34;;;;;;;34.37;30.53;;;;;;;15.92;88.99;100598.34;4993790;28;20406;-47
2022/06/09 03:03:05;;;;;;;40.40;33.17;;;;;;;15.93;88.69;100590.06;4993052;28;20812;-46
2022/06/09 03:05:36;;;;;;;41.40;35.20;;;;;;;15.94;88.76;100594.41;4993401;28;20520;-47
2022/06/09 03:08:06;;;;;;;39.90;32.43;;;;;;;15.95;88.91;100596.03;4993098;28;20470;-45
2022/06/09 03:10:35;;;;;;;44.07;37.77;;;;;;;15.96;88.68;100597.66;4993185;28;20927;-46
2022/06/09 03:13:03;;;;;;;45.00;36.07;;;;;;;15.94;89.04;100601.66;4993239;28;20871;-49
2022/06/09 03:15:31;;;;;;;46.40;39.07;;;;;;;15.95;88.45;100598.72;4993324;28;20802;-46
2022/06/09 03:17:59;;;;;;;51.00;36.97;;;;;;;15.96;88.71;100611.13;4992811;28;20472;-46
2022/06/09 03:20:29;;;;;;;38.93;34.50;;;;;;;15.97;88.32;100610.06;4993194;28;20444;-45
2022/06/09 03:22:57;;;;;;;37.77;34.00;;;;;;;15.97;88.96;100609.25;4993311;28;20434;-49
2022/06/09 03:25:26;;;;;;;35.87;32.07;;;;;;;15.98;88.45;100609.00;4993130;28;20437;-48
2022/06/09 03:27:54;;;;;;;34.63;30.70;;;;;;;15.98;88.61;100617.06;4992705;28;20460;-50
2022/06/09 03:30:21;;;;;;;36.83;32.93;;;;;;;16.00;88.75;100615.00;4993071;28;20430;-47
2022/06/09 03:32:49;;;;;;;40.10;33.43;;;;;;;16.01;88.54;100613.91;4985886;28;20846;-46
2022/06/09 03:35:18;;;;;;;37.03;30.37;;;;;;;16.01;88.87;100621.16;4983372;28;20453;-49
2022/06/09 03:37:45;;;;;;;28.57;25.50;;;;;;;16.02;88.54;100622.81;4981173;28;20455;-49
2022/06/09 03:40:17;;;;;;;31.20;28.00;;;;;;;16.00;89.48;100623.06;4992736;28;20839;-47
2022/06/09 03:42:46;;;;;;;34.47;30.43;;;;;;;15.99;89.72;100628.66;4992979;28;20445;-46
2022/06/09 03:45:14;;;;;;;28.83;26.03;;;;;;;15.99;89.67;100631.34;4992812;28;20430;-49
2022/06/09 03:47:42;;;;;;;31.20;27.60;;;;;;;15.98;89.95;100640.44;4992078;28;20462;-48
2022/06/09 03:50:15;;;;;;;27.07;24.27;;;;;;;15.98;89.48;100635.91;4992593;28;20438;-46
2022/06/09 03:52:43;;;;;;;30.47;24.80;;;;;;;15.97;90.18;100631.59;4981550;28;20479;-50
2022/06/09 03:55:11;;;;;;;27.30;23.83;;;;;;;15.98;90.28;100630.53;4980220;28;20431;-48
2022/06/09 03:57:38;;;;;;;25.03;22.37;;;;;;;15.98;90.01;100630.53;4985901;28;20809;-48
2022/06/09 04:00:10;;;;;;;31.03;25.90;;;;;;;15.97;90.50;100622.69;4991442;28;20440;-52
2022/06/09 04:02:38;;;;;;;25.30;22.70;;;;;;;16.00;89.99;100627.63;4992659;28;20434;-47
2022/06/09 04:05:06;;;;;;;28.07;25.30;;;;;;;16.03;90.04;100641.41;4992548;28;20438;-49
2022/06/09 04:07:34;;;;;;;28.53;25.63;;;;;;;16.07;89.98;100628.28;4991866;28;20951;-47
2022/06/09 04:10:02;;;;;;;29.20;25.17;;;;;;;16.10;90.62;100632.41;4992414;28;20426;-48
2022/06/09 04:12:29;;;;;;;23.87;21.33;;;;;;;16.13;90.17;100640.00;4991725;28;20426;-49
2022/06/09 04:14:57;;;;;;;24.07;21.97;;;;;;;16.18;89.87;100637.41;4992552;28;20807;-49
2022/06/09 04:17:26;;;;;;;25.93;23.40;;;;;;;16.24;90.03;100648.06;4991965;28;20492;-50
2022/06/09 04:19:54;;;;;;;23.93;21.63;;;;;;;16.29;90.08;100640.09;4992283;28;20487;-48
2022/06/09 04:22:21;;;;;;;25.13;22.63;;;;;;;16.34;90.42;100652.81;4992293;28;20442;-48
2022/06/09 04:24:49;;;;;;;25.83;23.30;;;;;;;16.39;90.79;100659.16;4992232;28;20432;-52
2022/06/09 04:27:16;;;;;;;26.23;23.40;;;;;;;16.41;91.40;100646.28;4992043;28;20446;-48
2022/06/09 04:29:44;;;;;;;29.63;26.70;;;;;;;16.44;91.98;100653.06;4992206;28;20440;-48
2022/06/09 04:32:12;;;;;;;27.70;25.20;;;;;;;16.49;91.78;100651.28;4985164;28;20803;-52
2022/06/09 04:34:42;;;;;;;24.83;22.53;;;;;;;16.59;90.90;100653.41;4984022;28;20469;-49
2022/06/09 04:37:10;;;;;;;26.60;24.00;;;;;;;16.66;91.53;100662.19;4992157;28;20450;-47
2022/06/09 04:39:37;;;;;;;39.13;24.70;;;;;;;16.71;92.09;100662.28;4991761;28;20468;-49
2022/06/09 04:42:05;;;;;;;23.73;21.53;;;;;;;16.78;92.89;100662.16;4992152;28;20433;-48
2022/06/09 04:44:33;;;;;;;23.83;21.70;;;;;;;16.86;92.86;100665.28;4992295;28;20445;-47
2022/06/09 04:47:00;;;;;;;25.37;23.10;;;;;;;16.98;92.91;100663.38;4991917;28;20461;-46
2022/06/09 04:49:28;;;;;;;23.67;21.50;;;;;;;17.15;91.95;100660.69;4991629;28;20465;-48
2022/06/09 04:51:57;;;;;;;24.13;21.87;;;;;;;17.27;93.50;100668.72;4991736;28;20814;-48
2022/06/09 04:54:25;;;;;;;25.10;22.63;;;;;;;17.38;94.71;100665.16;4992159;28;20473;-50
2022/06/09 04:56:52;;;;;;;22.43;20.10;;;;;;;17.46;95.70;100660.19;4992147;28;20567;-50
2022/06/09 04:59:20;;;;;;;19.03;17.33;;;;;;;17.57;96.56;100669.28;4991497;28;20461;-49
2022/06/09 05:01:48;;;;;;;25.33;22.70;;;;;;;17.68;97.56;100663.81;4991893;28;20434;-47
2022/06/09 05:04:15;;;;;;;23.53;21.20;;;;;;;17.79;98.16;100672.09;4991933;28;20434;-51
2022/06/09 05:06:43;;;;;;;19.53;17.83;;;;;;;17.86;98.76;100661.97;4991833;28;20461;-50
2022/06/09 05:09:12;;;;;;;19.30;17.70;;;;;;;17.90;99.31;100671.19;4991213;28;20465;-49
2022/06/09 05:11:40;;;;;;;18.10;16.60;;;;;;;17.96;99.17;100679.13;4991822;28;20777;-48
2022/06/09 05:14:07;;;;;;;19.30;17.70;;;;;;;17.99;99.34;100675.91;4991814;28;20495;-52
2022/06/09 05:16:35;;;;;;;16.70;15.27;;;;;;;18.03;99.40;100671.69;4991831;28;20454;-50
2022/06/09 05:19:03;;;;;;;20.67;18.83;;;;;;;18.08;99.33;100673.63;4991300;28;20576;-47
2022/06/09 05:21:33;;;;;;;14.83;13.73;;;;;;;18.13;99.53;100677.22;4991876;28;20437;-46
2022/06/09 05:24:01;;;;;;;17.47;15.77;;;;;;;18.26;99.41;100678.75;4992012;28;20429;-47
2022/06/09 05:26:30;;;;;;;20.07;17.90;;;;;;;18.38;99.49;100681.34;4995260;28;20536;-46
2022/06/09 05:28:58;;;;;;;16.10;14.80;;;;;;;18.51;99.22;100689.13;4994837;28;20469;-48
2022/06/09 05:31:28;;;;;;;15.77;14.53;;;;;;;18.60;99.33;100690.31;4990738;28;20434;-50
2022/06/09 05:33:56;;;;;;;16.90;15.37;;;;;;;18.57;98.37;100688.94;4984976;28;20470;-46
2022/06/09 05:36:24;;;;;;;16.93;14.67;;;;;;;18.62;98.00;100697.09;4995031;28;20460;-47
2022/06/09 05:47:09;;;;;;;16.73;15.13;;;;;;;20.21;97.19;100689.22;4994699;28;20461;-49
2022/06/09 05:49:36;;;;;;;14.30;13.20;;;;;;;20.50;95.26;100691.59;4994428;28;20461;-48
2022/06/09 05:52:04;;;;;;;17.97;16.30;;;;;;;20.53;89.36;100701.91;4994642;28;20434;-48
2022/06/09 05:54:32;;;;;;;12.30;11.20;;;;;;;20.54;88.85;100703.53;4994681;28;20997;-48
2022/06/09 05:57:01;;;;;;;14.90;13.60;;;;;;;20.51;88.23;100714.91;4994754;28;20456;-49
2022/06/09 05:59:29;;;;;;;13.80;12.60;;;;;;;20.40;86.97;100711.28;4994233;28;20544;-48
2022/06/09 06:01:56;;;;;;;12.77;11.70;;;;;;;20.30;86.23;100714.78;4994866;28;20437;-46
2022/06/09 06:04:24;;;;;;;16.10;13.47;;;;;;;20.31;87.45;100721.00;4994684;28;20860;-48
2022/06/09 06:06:52;;;;;;;15.40;13.90;;;;;;;20.36;87.96;100721.03;4994526;28;20448;-46
2022/06/09 06:09:22;;;;;;;12.70;11.80;;;;;;;20.31;84.48;100719.09;4994104;28;20999;-48
2022/06/09 06:11:51;;;;;;;14.00;12.70;;;;;;;20.40;86.34;100722.13;4994333;28;20433;-47
2022/06/09 06:14:22;;;;;;;14.30;13.13;;;;;;;20.54;87.29;100723.31;4994487;28;20479;-48
2022/06/09 06:16:50;;;;;;;15.13;13.70;;;;;;;20.63;86.29;100729.88;4994377;28;20453;-48
2022/06/09 06:19:20;;;;;;;13.60;12.60;;;;;;;20.63;84.72;100729.06;4993923;28;20548;-47
2022/06/09 06:21:49;;;;;;;14.30;13.00;;;;;;;20.58;85.02;100734.47;4994380;28;20441;-50
2022/06/09 06:24:18;;;;;;;12.70;11.60;;;;;;;20.54;85.50;100739.56;4994268;28;20951;-47
2022/06/09 06:26:47;;;;;;;12.33;11.43;;;;;;;20.42;84.51;100736.25;4994178;28;20813;-47
2022/06/09 06:29:17;;;;;;;14.77;13.57;;;;;;;20.31;84.03;100737.25;4993699;28;20462;-50
2022/06/09 06:31:46;;;;;;;14.13;13.03;;;;;;;20.12;83.44;100747.66;4993941;28;20783;-49
2022/06/09 06:34:16;;;;;;;12.13;11.10;;;;;;;19.99;83.69;100741.84;4994192;28;20484;-47
2022/06/09 06:36:43;;;;;;;13.10;12.10;;;;;;;19.80;84.21;100744.94;4993939;28;20529;-48
2022/06/09 06:39:11;;;;;;;14.30;12.80;;;;;;;19.59;84.56;100756.63;4993551;28;20489;-47
2022/06/09 06:41:39;;;;;;;15.83;13.90;;;;;;;19.37;85.98;100763.94;4993856;28;20422;-52
2022/06/09 06:44:07;;;;;;;15.50;13.13;;;;;;;19.09;87.11;100770.38;4993864;28;20528;-48
2022/06/09 06:46:35;;;;;;;13.93;12.77;;;;;;;19.01;88.45;100770.00;4993509;28;20476;-46
2022/06/09 06:49:05;;;;;;;13.30;12.20;;;;;;;18.97;89.77;100776.97;4993289;28;20457;-47
2022/06/09 06:51:33;;;;;;;13.83;12.63;;;;;;;18.99;91.02;100780.25;4993788;28;20437;-46
2022/06/09 06:54:03;;;;;;;12.70;11.70;;;;;;;19.11;92.02;100772.84;4993753;28;20436;-47
2022/06/09 06:56:31;;;;;;;12.37;11.00;;;;;;;19.24;92.37;100775.16;4993732;28;20459;-47
2022/06/09 06:58:59;;;;;;;12.03;11.13;;;;;;;19.39;92.21;100786.16;4993119;28;20465;-51
2022/06/09 07:01:26;;;;;;;14.87;13.30;;;;;;;19.59;92.43;100782.88;4993516;28;20429;-51
2022/06/09 07:03:55;;;;;;;14.70;13.50;;;;;;;19.71;91.04;100786.25;4993754;28;20857;-48
2022/06/09 07:06:24;;;;;;;12.80;11.60;;;;;;;19.86;90.78;100784.50;4993252;28;20461;-46
2022/06/09 07:08:52;;;;;;;12.40;11.50;;;;;;;19.90;87.76;100784.81;4992793;28;20472;-50
2022/06/09 07:11:19;;;;;;;13.17;12.10;;;;;;;20.06;88.46;100794.72;4993067;28;20440;-46
2022/06/09 07:13:47;;;;;;;14.53;13.33;;;;;;;20.17;86.86;100796.41;4993287;28;20434;-48
2022/06/09 07:16:15;;;;;;;14.37;13.20;;;;;;;20.47;88.00;100798.56;4993077;28;20487;-49
2022/06/09 07:19:03;;;;;;;15.50;14.17;;;;;;;20.70;84.04;100791.94;4992885;28;20832;-49
2022/06/09 07:21:32;;;;;;;10.27;9.47;;;;;;;20.31;82.14;100802.22;4992995;28;20440;-49
2022/06/09 07:24:00;;;;;;;6.07;5.50;;;;;;;19.78;80.50;100814.75;4992929;28;20444;-45
2022/06/09 07:26:28;;;;;;;3.83;3.63;;;;;;;19.19;82.37;100819.16;4993202;28;20453;-50
2022/06/09 07:28:56;;;;;;;5.10;4.70;;;;;;;18.89;86.13;100826.88;4992628;28;20843;-45
2022/06/09 07:31:23;;;;;;;5.23;4.93;;;;;;;18.66;88.40;100833.31;4992836;28;20439;-49
2022/06/09 07:33:51;;;;;;;4.50;4.20;;;;;;;18.51;90.21;100833.06;4993026;28;20938;-47
2022/06/09 07:36:22;;;;;;;4.43;4.23;;;;;;;18.36;91.04;100842.78;4993206;28;20477;-48
2022/06/09 07:38:51;;;;;;;4.60;4.30;;;;;;;18.18;91.67;100841.94;4992353;28;20465;-46
2022/06/09 07:41:20;;;;;;;7.50;4.90;;;;;;;18.03;92.13;100849.78;4992668;28;20429;-48
2022/06/09 07:43:59;;;;;;;4.70;4.40;;;;;;;17.79;92.42;100848.25;4992916;28;20433;-47
2022/06/09 07:46:27;;;;;;;4.83;4.63;;;;;;;17.72;93.85;100852.13;4992556;28;20470;-50
2022/06/09 07:48:55;;;;;;;5.07;4.50;;;;;;;17.65;95.18;100852.28;4991663;28;20535;-48
2022/06/09 07:51:23;;;;;;;4.10;3.90;;;;;;;17.66;95.49;100852.03;4992774;28;20437;-45
2022/06/09 07:53:52;;;;;;;4.33;4.03;;;;;;;17.75;96.42;100857.88;4992900;28;20449;-48
2022/06/09 07:56:20;;;;;;;4.17;3.90;;;;;;;17.80;96.40;100859.84;4992579;28;20489;-50
2022/06/09 07:58:48;;;;;;;4.07;3.87;;;;;;;17.93;96.76;100860.38;4992139;28;20479;-47
2022/06/09 08:01:18;;;;;;;4.20;4.00;;;;;;;17.95;96.15;100862.84;4992349;28;20441;-48
2022/06/09 08:03:47;;;;;;;4.07;3.77;;;;;;;17.96;95.57;100867.97;4992579;28;20446;-48
2022/06/09 08:06:15;;;;;;;4.60;4.07;;;;;;;18.11;96.22;100862.03;4992625;28;20804;-48
2022/06/09 08:08:57;;;;;;;4.47;4.17;;;;;;;18.13;95.01;100871.53;4992124;28;20833;-46
2022/06/09 08:11:28;;;;;;;5.00;3.30;;;;;;;18.15;94.92;100861.31;4992293;28;20434;-46
2022/06/09 08:13:58;;;;;;;3.57;3.37;;;;;;;18.44;95.76;100861.25;4992403;28;21001;-47
2022/06/09 08:16:26;;;;;;;4.13;3.73;;;;;;;18.65;94.36;100874.06;4992385;28;20477;-48
2022/06/09 08:18:54;;;;;;;3.97;3.77;;;;;;;18.70;92.09;100885.75;4992058;28;20560;-49
2022/06/09 08:21:22;;;;;;;3.93;3.73;;;;;;;19.07;93.36;100877.13;4992013;28;20438;-44
2022/06/09 08:24:09;;;;;;;3.20;3.10;;;;;;;19.10;87.49;100882.84;4992316;28;20420;-49
2022/06/09 08:26:38;;;;;;;3.40;3.17;;;;;;;19.45;88.62;100879.00;4992104;28;20449;-47
2022/06/09 08:29:06;;;;;;;2.67;2.57;;;;;;;19.58;85.21;100879.44;4991881;28;20474;-45
2022/06/09 08:31:33;;;;;;;2.90;2.70;;;;;;;19.49;83.74;100893.66;4986945;28;20840;-46
2022/06/09 08:34:01;;;;;;;3.20;2.90;;;;;;;19.38;83.72;100891.88;4982645;28;20446;-46
2022/06/09 08:36:29;;;;;;;3.67;2.63;;;;;;;19.31;83.76;100902.88;4992057;28;20483;-46
2022/06/09 08:38:57;;;;;;;2.60;2.50;;;;;;;19.21;83.78;100898.13;4991495;28;20461;-48
2022/06/09 08:41:42;;;;;;;2.47;2.30;;;;;;;19.08;83.91;100906.63;4992212;28;20461;-47
2022/06/09 08:44:17;;;;;;;2.83;2.73;;;;;;;18.96;85.08;100908.59;4992159;28;20437;-45
2022/06/09 08:46:53;;;;;;;2.57;2.40;;;;;;;18.79;86.77;100919.41;4992003;28;20457;-49
2022/06/09 08:49:52;;;;;;;3.07;2.83;;;;;;;18.53;86.73;100927.31;4991469;28;20998;-45
2022/06/09 08:52:31;;;;;;;3.07;2.87;;;;;;;18.46;89.32;100927.44;4992047;28;20430;-46
2022/06/09 08:54:59;;;;;;;3.00;2.80;;;;;;;18.58;90.32;100938.22;4992078;28;20430;-47
2022/06/09 08:57:33;;;;;;;3.00;2.80;;;;;;;18.83;90.55;100937.81;4991413;28;20465;-46
2022/06/09 09:00:02;;;;;;;3.60;3.30;;;;;;;19.22;90.97;100943.03;4993239;28;20887;-47
2022/06/09 09:02:37;;;;;;;3.43;3.23;;;;;;;19.52;89.09;100942.69;4995415;28;20924;-46
2022/06/09 09:05:14;;;;;;;3.40;3.20;;;;;;;19.72;86.91;100942.09;4995743;28;20433;-47
2022/06/09 09:07:47;;;;;;;2.60;2.40;;;;;;;19.82;85.64;100944.94;4995113;28;20465;-46
2022/06/09 09:10:20;;;;;;;4.80;2.83;;;;;;;19.99;83.14;100947.56;4995286;28;20430;-46
2022/06/09 09:13:05;;;;;;;2.57;2.47;;;;;;;20.23;80.75;100943.50;4995846;28;20441;-48
2022/06/09 09:15:39;;;;;;;2.60;2.30;;;;;;;20.29;79.92;100937.09;5018857;23;20459;-48
2022/06/09 09:18:26;;;;;;;2.50;2.40;;;;;;;21.17;79.01;100939.22;5005873;28;20468;-49
2022/06/09 09:21:06;;;;;;;2.63;2.53;;;;;;;21.70;76.96;100937.34;5014934;28;20428;-45
2022/06/09 09:23:41;;;;;;;3.43;2.60;;;;;;;21.42;70.73;100946.69;5015161;28;20446;-48
2022/06/09 09:26:20;;;;;;;3.10;2.80;;;;;;;21.34;73.16;100942.59;5015080;28;20470;-45
2022/06/09 09:28:56;;;;;;;3.23;2.93;;;;;;;21.49;72.04;100945.38;5014477;28;21000;-50
2022/06/09 09:31:36;;;;;;;2.90;2.80;;;;;;;21.99;74.75;100952.94;5011138;28;20429;-45
2022/06/09 09:34:05;;;;;;;3.20;2.90;;;;;;;22.24;73.90;100964.97;5005850;28;20448;-46
2022/06/09 09:36:36;;;;;;;2.70;2.50;;;;;;;22.24;72.18;100960.34;5014779;28;20480;-47
2022/06/09 09:39:16;;;;;;;2.83;2.73;;;;;;;22.24;70.24;100962.25;5014379;28;20475;-48
2022/06/09 09:41:44;;;;;;;3.07;2.87;;;;;;;22.31;69.01;100969.06;5014469;28;20412;-46
2022/06/09 09:44:20;;;;;;;3.23;3.03;;;;;;;22.47;70.11;100972.63;5014892;28;20444;-43
2022/06/09 09:46:50;;;;;;;3.57;3.03;;;;;;;22.42;68.17;100981.59;5014592;28;20450;-44
2022/06/09 09:49:25;;;;;;;2.93;2.73;;;;;;;22.37;67.97;100980.78;5014200;28;20834;-44
2022/06/09 09:51:54;;;;;;;2.83;2.73;;;;;;;21.94;67.52;100979.28;5014268;28;20428;-44
2022/06/09 09:54:27;;;;;;;2.90;2.80;;;;;;;21.81;68.68;100988.69;5014691;28;20436;-44
2022/06/09 09:57:14;;;;;;;3.00;2.80;;;;;;;21.81;70.59;100983.25;5014436;28;20974;-44
2022/06/09 09:59:51;;;;;;;2.67;2.47;;;;;;;22.21;70.47;100973.66;5014134;28;20490;-45
2022/06/09 10:08:45;;;;;;;6.20;3.30;;;;;;;22.73;66.89;100990.63;5013841;28;20503;-44
2022/06/09 10:14:37;;;;;;;3.33;3.23;;;;;;;23.45;65.18;100998.50;5014220;28;20944;-44
2022/06/09 10:17:29;;;;;;;2.77;2.60;;;;;;;23.42;63.32;100993.59;5013488;28;20479;-46
2022/06/09 10:20:27;;;;;;;3.83;3.63;;;;;;;23.22;60.71;101004.50;5013895;28;20567;-44
2022/06/09 10:22:58;;;;;;;4.20;4.10;;;;;;;22.94;62.49;101005.03;5013971;28;20432;-46
2022/06/09 10:25:30;;;;;;;3.53;3.40;;;;;;;22.83;63.02;101003.41;5013941;28;20775;-43
2022/06/09 10:28:04;;;;;;;3.60;3.40;;;;;;;22.86;63.16;101006.41;5013673;28;20837;-44
2022/06/09 10:30:39;;;;;;;4.23;4.00;;;;;;;22.97;63.53;101005.31;5013778;28;20798;-44
2022/06/09 10:33:19;;;;;;;4.30;4.10;;;;;;;23.01;60.60;101016.47;5004005;28;20456;-46
2022/06/09 10:35:54;;;;;;;3.93;3.83;;;;;;;23.24;60.89;101024.06;5010054;28;20451;-49
2022/06/09 10:38:30;;;;;;;4.13;4.03;;;;;;;23.64;62.10;101021.34;5013307;28;20988;-44
2022/06/09 10:41:00;;;;;;;4.47;4.27;;;;;;;24.03;60.33;101028.81;5013648;28;20432;-44
2022/06/09 10:43:35;;;;;;;4.97;4.77;;;;;;;24.11;58.41;101023.66;5013732;28;20445;-44
2022/06/09 10:46:13;;;;;;;4.67;4.57;;;;;;;24.53;59.36;101033.22;5013515;28;20459;-46
2022/06/09 10:57:30;;;;;;;4.70;4.50;;;;;;;24.18;58.45;101042.41;5012960;28;20559;-46
2022/06/09 11:00:04;;;;;;;4.00;3.90;;;;;;;23.80;57.55;101043.91;5013382;28;20428;-46
2022/06/09 11:02:34;;;;;;;4.67;4.47;;;;;;;23.68;61.54;101048.81;5013262;28;20435;-43
2022/06/09 11:05:05;;;;;;;4.03;3.93;;;;;;;23.44;61.08;101054.03;5013515;28;20413;-44
2022/06/09 11:07:47;;;;;;;3.93;3.83;;;;;;;23.07;60.11;101053.47;5012758;28;20452;-47
2022/06/09 11:10:29;;;;;;;4.00;3.90;;;;;;;22.82;60.31;101059.69;5013154;28;20433;-44
2022/06/09 11:13:24;;;;;;;4.70;4.50;;;;;;;22.50;60.43;101059.88;5013097;28;20967;-47
2022/06/09 11:16:01;;;;;;;4.50;4.40;;;;;;;22.30;61.37;101062.53;5012861;28;20460;-44
2022/06/09 11:18:40;;;;;;;5.07;4.87;;;;;;;22.53;62.19;101063.94;5012655;28;20462;-49
2022/06/09 11:21:16;;;;;;;4.83;4.73;;;;;;;22.86;59.36;101068.94;5012690;28;20929;-45
2022/06/09 11:23:59;;;;;;;3.80;3.70;;;;;;;22.85;59.38;101067.31;5012073;28;20523;-44
2022/06/09 11:26:36;;;;;;;4.20;4.00;;;;;;;22.35;59.26;101073.41;5013038;28;20448;-46
2022/06/09 11:29:19;;;;;;;4.17;4.07;;;;;;;22.42;60.09;101084.03;5012451;28;20472;-46
2022/06/09 11:32:00;;;;;;;4.43;4.13;;;;;;;22.12;61.19;101092.06;5005625;28;20791;-45
2022/06/09 11:34:45;;;;;;;3.77;3.67;;;;;;;21.77;62.25;101089.94;4995357;28;20528;-44
2022/06/09 11:37:40;;;;;;;4.47;4.23;;;;;;;21.74;62.90;101104.03;4992651;28;20564;-45
2022/06/09 11:40:22;;;;;;;9.30;4.57;;;;;;;21.77;64.75;101103.50;4992848;28;20919;-44
2022/06/09 11:43:01;;;;;;;4.97;4.50;;;;;;;22.09;63.83;101106.97;4993199;28;20442;-46
2022/06/09 11:45:33;;;;;;;4.43;4.23;;;;;;;22.28;64.21;101101.91;4992870;28;20949;-44
2022/06/09 11:48:03;;;;;;;4.70;4.40;;;;;;;22.35;63.17;101106.00;4992498;28;20465;-46
2022/06/09 11:50:36;;;;;;;4.40;4.20;;;;;;;22.20;63.19;101097.78;4992542;28;20959;-44
2022/06/09 11:53:06;;;;;;;4.70;4.30;;;;;;;21.88;62.79;101111.47;4992851;28;20942;-45
2022/06/09 11:58:46;;;;;;;4.87;4.67;;;;;;;21.50;65.30;101122.59;4990603;28;20465;-44
2022/06/09 12:01:45;;;;;;;4.90;4.70;;;;;;;21.85;65.56;101122.84;4992299;28;20433;-49
2022/06/09 12:04:24;;;;;;;5.90;5.70;;;;;;;22.50;63.89;101116.94;4992779;28;20780;-50